sensor_id;sensor_type;location;lat;lon;timestamp;pressure;altitude;pressure_sealevel;temperature;humidity
42003;BME280;27693;50.506;30.832;2023-01-30T00:00:42;99687.48;;;-0.93;63.81
42003;BME280;27693;50.506;30.832;2023-01-30T00:01:45;99679.80;;;-0.89;64.06
42003;BME280;27693;50.506;30.832;2023-01-30T00:02:48;99679.80;;;-0.84;64.30
42003;BME280;27693;50.506;30.832;2023-01-30T00:03:50;99681.52;;;-1.02;62.70
42003;BME280;27693;50.506;30.832;2023-01-30T00:04:52;99678.95;;;-1.06;63.04
42003;BME280;27693;50.506;30.832;2023-01-30T00:05:55;99674.70;;;-1.04;63.24
42003;BME280;27693;50.506;30.832;2023-01-30T00:06:57;99684.04;;;-1.09;63.29
42003;BME280;27693;50.506;30.832;2023-01-30T00:07:59;99670.45;;;-1.05;63.71
42003;BME280;27693;50.506;30.832;2023-01-30T00:09:01;99673.00;;;-0.99;64.40
42003;BME280;27693;50.506;30.832;2023-01-30T00:10:05;99677.25;;;-0.95;64.06
42003;BME280;27693;50.506;30.832;2023-01-30T00:11:10;99684.06;;;-0.88;64.44
42003;BME280;27693;50.506;30.832;2023-01-30T00:12:13;99677.23;;;-1.06;63.24
42003;BME280;27693;50.506;30.832;2023-01-30T00:13:16;99682.36;;;-1.10;63.96
42003;BME280;27693;50.506;30.832;2023-01-30T00:14:18;99670.45;;;-1.05;64.26
42003;BME280;27693;50.506;30.832;2023-01-30T00:15:20;99668.73;;;-1.06;64.63
42003;BME280;27693;50.506;30.832;2023-01-30T00:16:22;99667.86;;;-1.19;63.61
42003;BME280;27693;50.506;30.832;2023-01-30T00:17:24;99667.86;;;-1.19;63.61
42003;BME280;27693;50.506;30.832;2023-01-30T00:18:27;99672.13;;;-1.07;64.55
42003;BME280;27693;50.506;30.832;2023-01-30T00:19:29;99672.13;;;-1.14;64.04
42003;BME280;27693;50.506;30.832;2023-01-30T00:20:32;99670.44;;;-1.18;64.06
42003;BME280;27693;50.506;30.832;2023-01-30T00:21:34;99669.58;;;-1.21;64.06
42003;BME280;27693;50.506;30.832;2023-01-30T00:22:36;99661.91;;;-1.17;64.48
42003;BME280;27693;50.506;30.832;2023-01-30T00:23:38;99661.94;;;-1.10;64.84
42003;BME280;27693;50.506;30.832;2023-01-30T00:24:41;99661.94;;;-1.10;64.67
42003;BME280;27693;50.506;30.832;2023-01-30T00:25:44;99658.52;;;-1.17;64.14
42003;BME280;27693;50.506;30.832;2023-01-30T00:26:47;99663.63;;;-1.19;64.19
42003;BME280;27693;50.506;30.832;2023-01-30T00:27:49;99659.36;;;-1.26;64.06
42003;BME280;27693;50.506;30.832;2023-01-30T00:28:51;99661.05;;;-1.28;64.18
42003;BME280;27693;50.506;30.832;2023-01-30T00:29:55;99652.55;;;-1.29;64.44
42003;BME280;27693;50.506;30.832;2023-01-30T00:31:00;99651.69;;;-1.23;65.13
42003;BME280;27693;50.506;30.832;2023-01-30T00:32:03;99648.30;;;-1.19;64.86
42003;BME280;27693;50.506;30.832;2023-01-30T00:33:05;99652.56;;;-1.11;65.27
42003;BME280;27693;50.506;30.832;2023-01-30T00:34:07;99659.38;;;-1.03;65.15
42003;BME280;27693;50.506;30.832;2023-01-30T00:35:10;99650.85;;;-1.17;63.94
42003;BME280;27693;50.506;30.832;2023-01-30T00:36:12;99656.80;;;-1.17;64.55
42003;BME280;27693;50.506;30.832;2023-01-30T00:37:14;99658.52;;;-1.13;64.41
42003;BME280;27693;50.506;30.832;2023-01-30T00:38:17;99654.25;;;-1.18;64.13
42003;BME280;27693;50.506;30.832;2023-01-30T00:39:19;99649.16;;;-1.14;64.66
42003;BME280;27693;50.506;30.832;2023-01-30T00:40:24;99647.45;;;-1.15;64.67
42003;BME280;27693;50.506;30.832;2023-01-30T00:41:27;99650.87;;;-1.08;64.69
42003;BME280;27693;50.506;30.832;2023-01-30T00:42:32;99652.56;;;-0.99;65.05
42003;BME280;27693;50.506;30.832;2023-01-30T00:43:53;99644.91;;;-0.93;65.07
42003;BME280;27693;50.506;30.832;2023-01-30T00:45:14;99642.34;;;-1.10;63.98
42003;BME280;27693;50.506;30.832;2023-01-30T00:46:36;99640.64;;;-1.13;64.84
42003;BME280;27693;50.506;30.832;2023-01-30T00:47:59;99646.59;;;-1.12;64.58
42003;BME280;27693;50.506;30.832;2023-01-30T00:49:02;99638.09;;;-1.17;64.52
42003;BME280;27693;50.506;30.832;2023-01-30T00:50:05;99647.45;;;-1.15;64.97
42003;BME280;27693;50.506;30.832;2023-01-30T00:51:07;99647.46;;;-1.18;64.61
42003;BME280;27693;50.506;30.832;2023-01-30T00:52:09;99644.05;;;-1.20;64.78
42003;BME280;27693;50.506;30.832;2023-01-30T00:53:13;99638.92;;;-1.23;64.72
42003;BME280;27693;50.506;30.832;2023-01-30T00:54:16;99638.09;;;-1.25;64.75
42003;BME280;27693;50.506;30.832;2023-01-30T00:55:18;99634.66;;;-1.30;64.83
42003;BME280;27693;50.506;30.832;2023-01-30T00:56:21;99632.97;;;-1.28;65.20
42003;BME280;27693;50.506;30.832;2023-01-30T00:57:25;99632.98;;;-1.31;64.98
42003;BME280;27693;50.506;30.832;2023-01-30T00:58:27;99626.17;;;-1.26;65.17
42003;BME280;27693;50.506;30.832;2023-01-30T00:59:29;99627.88;;;-1.19;65.42
42003;BME280;27693;50.506;30.832;2023-01-30T01:00:32;99623.62;;;-1.20;64.98
42003;BME280;27693;50.506;30.832;2023-01-30T01:01:36;99614.25;;;-1.27;64.85
42003;BME280;27693;50.506;30.832;2023-01-30T01:02:38;99621.07;;;-1.26;65.51
42003;BME280;27693;50.506;30.832;2023-01-30T01:03:42;99615.95;;;-1.23;65.01
42003;BME280;27693;50.506;30.832;2023-01-30T01:04:45;99613.39;;;-1.23;65.00
42003;BME280;27693;50.506;30.832;2023-01-30T01:05:47;99605.73;;;-1.23;65.38
42003;BME280;27693;50.506;30.832;2023-01-30T01:06:50;99606.61;;;-1.16;65.78
42003;BME280;27693;50.506;30.832;2023-01-30T01:07:52;99602.34;;;-1.16;65.82
42003;BME280;27693;50.506;30.832;2023-01-30T01:08:54;99599.78;;;-1.16;65.94
42003;BME280;27693;50.506;30.832;2023-01-30T01:09:57;99606.62;;;-1.24;65.51
42003;BME280;27693;50.506;30.832;2023-01-30T01:11:00;99610.00;;;-1.22;66.14
42003;BME280;27693;50.506;30.832;2023-01-30T01:12:02;99605.75;;;-1.26;66.18
42003;BME280;27693;50.506;30.832;2023-01-30T01:13:05;99605.73;;;-1.41;65.79
42003;BME280;27693;50.506;30.832;2023-01-30T01:14:09;99593.81;;;-1.42;65.73
42003;BME280;27693;50.506;30.832;2023-01-30T01:15:12;99597.23;;;-1.47;65.98
42003;BME280;27693;50.506;30.832;2023-01-30T01:16:15;99597.23;;;-1.40;66.56
42003;BME280;27693;50.506;30.832;2023-01-30T01:17:17;99597.22;;;-1.43;65.85
42003;BME280;27693;50.506;30.832;2023-01-30T01:18:20;99594.67;;;-1.53;66.19
42003;BME280;27693;50.506;30.832;2023-01-30T01:19:22;99593.81;;;-1.55;66.12
42003;BME280;27693;50.506;30.832;2023-01-30T01:20:25;99602.30;;;-1.56;66.35
42003;BME280;27693;50.506;30.832;2023-01-30T01:21:28;99597.22;;;-1.53;66.84
42003;BME280;27693;50.506;30.832;2023-01-30T01:22:30;99602.33;;;-1.47;66.88
42003;BME280;27693;50.506;30.832;2023-01-30T01:23:34;99594.66;;;-1.43;67.32
42003;BME280;27693;50.506;30.832;2023-01-30T01:24:36;99602.34;;;-1.40;67.18
42003;BME280;27693;50.506;30.832;2023-01-30T01:25:38;99600.62;;;-1.48;66.62
42003;BME280;27693;50.506;30.832;2023-01-30T01:26:41;99598.92;;;-1.50;66.93
42003;BME280;27693;50.506;30.832;2023-01-30T01:27:45;99594.66;;;-1.51;66.93
42003;BME280;27693;50.506;30.832;2023-01-30T01:28:54;99597.22;;;-1.43;67.11
42003;BME280;27693;50.506;30.832;2023-01-30T01:29:57;99585.33;;;-1.38;67.08
42003;BME280;27693;50.506;30.832;2023-01-30T01:31:11;99592.13;;;-1.40;66.86
42003;BME280;27693;50.506;30.832;2023-01-30T01:32:13;99589.58;;;-1.40;67.23
42003;BME280;27693;50.506;30.832;2023-01-30T01:33:15;99581.94;;;-1.37;67.82
42003;BME280;27693;50.506;30.832;2023-01-30T01:34:18;99587.01;;;-1.43;67.05
42003;BME280;27693;50.506;30.832;2023-01-30T01:35:20;99592.11;;;-1.43;67.33
42003;BME280;27693;50.506;30.832;2023-01-30T01:36:22;99587.88;;;-1.43;67.65
42003;BME280;27693;50.506;30.832;2023-01-30T01:37:30;99583.61;;;-1.42;67.16
42003;BME280;27693;50.506;30.832;2023-01-30T01:38:34;99592.14;;;-1.37;67.36
42003;BME280;27693;50.506;30.832;2023-01-30T01:39:38;99586.18;;;-1.33;67.10
42003;BME280;27693;50.506;30.832;2023-01-30T01:41:01;99584.47;;;-1.28;67.68
42003;BME280;27693;50.506;30.832;2023-01-30T01:42:03;99586.17;;;-1.27;66.73
42003;BME280;27693;50.506;30.832;2023-01-30T01:43:24;99582.77;;;-1.23;67.25
42003;BME280;27693;50.506;30.832;2023-01-30T04:50:00;99441.57;;;-1.61;73.38
42003;BME280;27693;50.506;30.832;2023-01-30T04:51:02;99435.64;;;-1.63;73.16
42003;BME280;27693;50.506;30.832;2023-01-30T04:52:05;99434.78;;;-1.65;73.70
42003;BME280;27693;50.506;30.832;2023-01-30T04:53:08;99434.78;;;-1.55;74.10
42003;BME280;27693;50.506;30.832;2023-01-30T04:54:11;99433.06;;;-1.49;74.01
42003;BME280;27693;50.506;30.832;2023-01-30T04:55:13;99432.23;;;-1.45;74.59
42003;BME280;27693;50.506;30.832;2023-01-30T04:56:16;99430.52;;;-1.46;73.44
42003;BME280;27693;50.506;30.832;2023-01-30T04:57:18;99427.95;;;-1.44;73.73
42003;BME280;27693;50.506;30.832;2023-01-30T04:58:21;99428.79;;;-1.34;73.82
42003;BME280;27693;50.506;30.832;2023-01-30T04:59:24;99431.33;;;-1.33;73.23
42003;BME280;27693;50.506;30.832;2023-01-30T05:00:27;99422.80;;;-1.25;73.05
42003;BME280;27693;50.506;30.832;2023-01-30T05:01:35;99431.31;;;-1.19;73.84
42003;BME280;27693;50.506;30.832;2023-01-30T05:02:38;99428.80;;;-1.31;72.03
42003;BME280;27693;50.506;30.832;2023-01-30T05:03:40;99422.00;;;-1.38;72.31
42003;BME280;27693;50.506;30.832;2023-01-30T05:04:43;99430.50;;;-1.38;72.45
42003;BME280;27693;50.506;30.832;2023-01-30T05:05:46;99423.69;;;-1.31;72.33
42003;BME280;27693;50.506;30.832;2023-01-30T05:06:49;99416.88;;;-1.35;72.02
42003;BME280;27693;50.506;30.832;2023-01-30T05:07:51;99423.70;;;-1.37;72.38
42003;BME280;27693;50.506;30.832;2023-01-30T05:08:55;99422.81;;;-1.30;72.79
42003;BME280;27693;50.506;30.832;2023-01-30T05:09:57;99426.23;;;-1.25;73.58
42003;BME280;27693;50.506;30.832;2023-01-30T05:11:00;99424.50;;;-1.15;73.24
42003;BME280;27693;50.506;30.832;2023-01-30T05:12:02;99413.39;;;-1.05;73.23
42003;BME280;27693;50.506;30.832;2023-01-30T05:13:05;99416.79;;;-1.06;72.68
42003;BME280;27693;50.506;30.832;2023-01-30T05:14:08;99404.89;;;-1.05;72.45
42003;BME280;27693;50.506;30.832;2023-01-30T05:15:12;99414.24;;;-1.00;72.99
42003;BME280;27693;50.506;30.832;2023-01-30T05:16:16;99415.92;;;-0.95;73.11
42003;BME280;27693;50.506;30.832;2023-01-30T05:17:19;99408.28;;;-1.02;72.95
42003;BME280;27693;50.506;30.832;2023-01-30T05:18:21;99406.59;;;-1.07;72.56
42003;BME280;27693;50.506;30.832;2023-01-30T05:19:23;99404.06;;;-1.14;73.09
42003;BME280;27693;50.506;30.832;2023-01-30T05:20:26;99412.58;;;-1.11;73.08
42003;BME280;27693;50.506;30.832;2023-01-30T05:21:28;99415.16;;;-1.30;72.01
42003;BME280;27693;50.506;30.832;2023-01-30T05:22:31;99405.83;;;-1.39;72.44
42003;BME280;27693;50.506;30.832;2023-01-30T05:23:33;99397.29;;;-1.30;72.99
42003;BME280;27693;50.506;30.832;2023-01-30T05:24:36;99409.22;;;-1.31;73.15
42003;BME280;27693;50.506;30.832;2023-01-30T05:25:38;99401.52;;;-1.23;74.19
42003;BME280;27693;50.506;30.832;2023-01-30T05:26:41;99395.58;;;-1.19;74.23
42003;BME280;27693;50.506;30.832;2023-01-30T05:27:43;99392.14;;;-1.15;74.04
42003;BME280;27693;50.506;30.832;2023-01-30T05:28:53;99389.61;;;-1.16;73.99
42003;BME280;27693;50.506;30.832;2023-01-30T05:29:56;99404.94;;;-1.18;74.10
42003;BME280;27693;50.506;30.832;2023-01-30T05:31:11;99407.47;;;-1.19;73.97
42003;BME280;27693;50.506;30.832;2023-01-30T05:32:13;99394.72;;;-1.21;73.75
42003;BME280;27693;50.506;30.832;2023-01-30T05:33:16;99400.70;;;-1.30;73.69
42003;BME280;27693;50.506;30.832;2023-01-30T05:34:18;99393.06;;;-1.34;73.93
42003;BME280;27693;50.506;30.832;2023-01-30T05:35:20;99394.72;;;-1.21;74.72
42003;BME280;27693;50.506;30.832;2023-01-30T05:36:23;99396.47;;;-1.32;74.29
42003;BME280;27693;50.506;30.832;2023-01-30T05:37:26;99398.19;;;-1.50;73.85
42003;BME280;27693;50.506;30.832;2023-01-30T05:38:28;99398.20;;;-1.47;74.53
42003;BME280;27693;50.506;30.832;2023-01-30T05:39:31;99392.22;;;-1.38;74.77
42003;BME280;27693;50.506;30.832;2023-01-30T05:40:43;99385.31;;;-1.09;75.35
42003;BME280;27693;50.506;30.832;2023-01-30T05:41:45;99389.63;;;-1.22;74.49
42003;BME280;27693;50.506;30.832;2023-01-30T05:42:48;99388.75;;;-1.10;75.10
42003;BME280;27693;50.506;30.832;2023-01-30T05:43:50;99385.34;;;-1.16;74.86
42003;BME280;27693;50.506;30.832;2023-01-30T05:44:53;99378.53;;;-1.14;74.90
42003;BME280;27693;50.506;30.832;2023-01-30T05:45:56;99378.48;;;-1.06;75.66
42003;BME280;27693;50.506;30.832;2023-01-30T05:46:59;99382.77;;;-1.03;75.29
42003;BME280;27693;50.506;30.832;2023-01-30T05:48:02;99381.06;;;-1.04;74.73
42003;BME280;27693;50.506;30.832;2023-01-30T05:49:04;99382.73;;;-1.00;75.42
42003;BME280;27693;50.506;30.832;2023-01-30T05:50:10;99377.63;;;-0.97;75.00
42003;BME280;27693;50.506;30.832;2023-01-30T05:51:18;99364.84;;;-0.95;74.90
42003;BME280;27693;50.506;30.832;2023-01-30T05:52:20;99368.23;;;-0.95;75.12
42003;BME280;27693;50.506;30.832;2023-01-30T05:53:26;99372.55;;;-1.06;74.06
42003;BME280;27693;50.506;30.832;2023-01-30T05:54:28;99364.92;;;-1.17;73.94
42003;BME280;27693;50.506;30.832;2023-01-30T05:55:29;99365.77;;;-1.17;73.98
42003;BME280;27693;50.506;30.832;2023-01-30T05:56:33;99370.06;;;-1.20;74.17
42003;BME280;27693;50.506;30.832;2023-01-30T05:57:35;99366.64;;;-1.21;74.67
42003;BME280;27693;50.506;30.832;2023-01-30T05:58:37;99358.98;;;-1.18;74.86
42003;BME280;27693;50.506;30.832;2023-01-30T05:59:39;99361.48;;;-1.08;74.97
42003;BME280;27693;50.506;30.832;2023-01-30T06:00:42;99361.50;;;-1.10;74.29
42003;BME280;27693;50.506;30.832;2023-01-30T06:01:44;99364.03;;;-1.05;74.51
42003;BME280;27693;50.506;30.832;2023-01-30T06:02:46;99358.90;;;-0.99;74.80
42003;BME280;27693;50.506;30.832;2023-01-30T06:03:48;99358.03;;;-0.93;75.32
42003;BME280;27693;50.506;30.832;2023-01-30T06:04:51;99362.20;;;-0.78;75.27
42003;BME280;27693;50.506;30.832;2023-01-30T06:05:53;99362.20;;;-0.78;75.27
42003;BME280;27693;50.506;30.832;2023-01-30T06:06:56;99362.24;;;-0.88;74.48
42003;BME280;27693;50.506;30.832;2023-01-30T06:07:58;99372.48;;;-0.94;74.33
42003;BME280;27693;50.506;30.832;2023-01-30T06:09:00;99360.59;;;-0.93;74.45
42003;BME280;27693;50.506;30.832;2023-01-30T06:10:04;99363.95;;;-0.84;75.05
42003;BME280;27693;50.506;30.832;2023-01-30T06:11:12;99363.84;;;-0.68;75.39
42003;BME280;27693;50.506;30.832;2023-01-30T06:12:14;99358.69;;;-0.59;74.81
42003;BME280;27693;50.506;30.832;2023-01-30T06:13:16;99365.53;;;-0.64;73.87
42003;BME280;27693;50.506;30.832;2023-01-30T06:14:18;99360.47;;;-0.70;74.63
42003;BME280;27693;50.506;30.832;2023-01-30T06:15:20;99360.47;;;-0.70;74.63
42003;BME280;27693;50.506;30.832;2023-01-30T06:16:23;99359.59;;;-0.68;73.88
42003;BME280;27693;50.506;30.832;2023-01-30T06:17:26;99363.83;;;-0.65;74.51
42003;BME280;27693;50.506;30.832;2023-01-30T06:18:30;99358.73;;;-0.68;73.62
42003;BME280;27693;50.506;30.832;2023-01-30T06:19:32;99347.71;;;-0.75;73.79
42003;BME280;27693;50.506;30.832;2023-01-30T06:20:35;99355.43;;;-0.86;73.62
42003;BME280;27693;50.506;30.832;2023-01-30T06:21:37;99345.23;;;-0.87;74.11
42003;BME280;27693;50.506;30.832;2023-01-30T06:22:39;99344.38;;;-0.89;74.57
42003;BME280;27693;50.506;30.832;2023-01-30T06:23:41;99341.84;;;-0.94;74.18
42003;BME280;27693;50.506;30.832;2023-01-30T06:24:43;99345.30;;;-1.00;74.46
42003;BME280;27693;50.506;30.832;2023-01-30T06:25:48;99347.81;;;-0.97;75.10
42003;BME280;27693;50.506;30.832;2023-01-30T06:26:51;99340.99;;;-0.96;74.63
42003;BME280;27693;50.506;30.832;2023-01-30T06:27:54;99337.64;;;-1.00;74.88
42003;BME280;27693;50.506;30.832;2023-01-30T06:28:57;99341.05;;;-1.05;74.75
42003;BME280;27693;50.506;30.832;2023-01-30T06:29:59;99345.28;;;-1.01;75.08
42003;BME280;27693;50.506;30.832;2023-01-30T06:31:01;99338.47;;;-1.02;75.09
42003;BME280;27693;50.506;30.832;2023-01-30T06:32:04;99336.75;;;-0.95;75.14
42003;BME280;27693;50.506;30.832;2023-01-30T06:33:07;99346.92;;;-0.88;74.95
42003;BME280;27693;50.506;30.832;2023-01-30T06:34:10;99337.57;;;-0.87;74.43
42003;BME280;27693;50.506;30.832;2023-01-30T06:35:13;99331.59;;;-0.85;74.73
42003;BME280;27693;50.506;30.832;2023-01-30T06:36:17;99338.44;;;-0.93;74.38
42003;BME280;27693;50.506;30.832;2023-01-30T06:37:19;99335.03;;;-0.95;74.90
42003;BME280;27693;50.506;30.832;2023-01-30T06:38:21;99333.33;;;-0.90;74.72
42003;BME280;27693;50.506;30.832;2023-01-30T06:39:24;99333.33;;;-0.90;74.72
42003;BME280;27693;50.506;30.832;2023-01-30T06:40:26;99334.11;;;-0.82;75.18
42003;BME280;27693;50.506;30.832;2023-01-30T06:41:28;99327.23;;;-0.72;75.20
42003;BME280;27693;50.506;30.832;2023-01-30T06:42:30;99336.63;;;-0.72;74.35
42003;BME280;27693;50.506;30.832;2023-01-30T06:43:34;99328.11;;;-0.71;74.86
42003;BME280;27693;50.506;30.832;2023-01-30T06:44:36;99336.58;;;-0.66;74.54
42003;BME280;27693;50.506;30.832;2023-01-30T06:45:38;99328.86;;;-0.58;74.21
42003;BME280;27693;50.506;30.832;2023-01-30T06:46:40;99331.40;;;-0.52;74.46
42003;BME280;27693;50.506;30.832;2023-01-30T06:47:53;99329.77;;;-0.64;73.64
42003;BME280;27693;50.506;30.832;2023-01-30T06:48:55;99334.07;;;-0.75;73.82
42003;BME280;27693;50.506;30.832;2023-01-30T06:49:58;99332.52;;;-0.98;73.26
42003;BME280;27693;50.506;30.832;2023-01-30T06:51:00;99329.08;;;-0.94;74.47
42003;BME280;27693;50.506;30.832;2023-01-30T06:52:02;99323.11;;;-0.90;75.14
42003;BME280;27693;50.506;30.832;2023-01-30T06:53:06;99319.67;;;-0.89;75.29
42003;BME280;27693;50.506;30.832;2023-01-30T06:54:10;99315.45;;;-0.93;75.02
42003;BME280;27693;50.506;30.832;2023-01-30T06:55:15;99316.34;;;-0.97;75.14
42003;BME280;27693;50.506;30.832;2023-01-30T06:56:18;99321.41;;;-0.91;75.37
42003;BME280;27693;50.506;30.832;2023-01-30T06:57:20;99326.48;;;-0.85;75.51
42003;BME280;27693;50.506;30.832;2023-01-30T06:58:23;99323.91;;;-0.83;75.08
42003;BME280;27693;50.506;30.832;2023-01-30T06:59:25;99305.14;;;-0.76;75.71
42003;BME280;27693;50.506;30.832;2023-01-30T07:00:28;99311.91;;;-0.72;75.21
42003;BME280;27693;50.506;30.832;2023-01-30T07:01:30;99318.70;;;-0.66;75.01
42003;BME280;27693;50.506;30.832;2023-01-30T07:02:33;99306.77;;;-0.64;74.94
42003;BME280;27693;50.506;30.832;2023-01-30T07:03:36;99310.27;;;-0.81;74.24
42003;BME280;27693;50.506;30.832;2023-01-30T07:04:38;99311.12;;;-0.78;74.89
42003;BME280;27693;50.506;30.832;2023-01-30T07:05:43;99308.58;;;-0.80;75.03
42003;BME280;27693;50.506;30.832;2023-01-30T07:06:46;99309.49;;;-0.92;74.71
42003;BME280;27693;50.506;30.832;2023-01-30T07:07:50;99306.13;;;-0.97;74.80
42003;BME280;27693;50.506;30.832;2023-01-30T07:08:52;99312.11;;;-1.06;75.21
42003;BME280;27693;50.506;30.832;2023-01-30T07:09:54;99315.55;;;-1.11;74.91
42003;BME280;27693;50.506;30.832;2023-01-30T07:10:58;99312.20;;;-1.21;75.25
42003;BME280;27693;50.506;30.832;2023-01-30T07:12:03;99310.44;;;-1.07;76.10
42003;BME280;27693;50.506;30.832;2023-01-30T07:13:05;99312.05;;;-0.95;76.82
42003;BME280;27693;50.506;30.832;2023-01-30T07:14:08;99308.66;;;-0.99;75.45
42003;BME280;27693;50.506;30.832;2023-01-30T07:15:10;99311.23;;;-1.00;76.22
42003;BME280;27693;50.506;30.832;2023-01-30T07:16:13;99305.30;;;-1.04;75.60
42003;BME280;27693;50.506;30.832;2023-01-30T07:17:15;99323.22;;;-1.11;75.76
42003;BME280;27693;50.506;30.832;2023-01-30T07:18:18;99310.34;;;-0.96;77.37
42003;BME280;27693;50.506;30.832;2023-01-30T07:19:21;99306.78;;;-0.67;78.29
42003;BME280;27693;50.506;30.832;2023-01-30T07:20:23;99313.63;;;-0.69;76.73
42003;BME280;27693;50.506;30.832;2023-01-30T07:21:26;99319.47;;;-0.55;77.72
42003;BME280;27693;50.506;30.832;2023-01-30T07:22:28;99303.44;;;-0.77;77.54
42003;BME280;27693;50.506;30.832;2023-01-30T07:23:31;99303.44;;;-0.77;77.54
42003;BME280;27693;50.506;30.832;2023-01-30T07:24:34;99311.91;;;-0.69;78.16
42003;BME280;27693;50.506;30.832;2023-01-30T07:25:36;99309.23;;;-0.52;78.87
42003;BME280;27693;50.506;30.832;2023-01-30T07:26:38;99305.78;;;-0.47;78.68
42003;BME280;27693;50.506;30.832;2023-01-30T07:27:40;99307.32;;;-0.25;82.40
42003;BME280;27693;50.506;30.832;2023-01-30T07:28:43;99307.02;;;0.09;83.77
42003;BME280;27693;50.506;30.832;2023-01-30T07:29:45;99303.76;;;-0.07;81.35
42003;BME280;27693;50.506;30.832;2023-01-30T07:30:48;99302.01;;;0.00;81.19
42003;BME280;27693;50.506;30.832;2023-01-30T07:31:53;99295.92;;;0.10;81.52
42003;BME280;27693;50.506;30.832;2023-01-30T07:32:57;99294.77;;;0.39;83.52
42003;BME280;27693;50.506;30.832;2023-01-30T07:33:59;99294.09;;;0.22;80.00
42003;BME280;27693;50.506;30.832;2023-01-30T07:35:02;99308.73;;;0.07;78.61
42003;BME280;27693;50.506;30.832;2023-01-30T07:36:07;99297.91;;;-0.21;76.06
42003;BME280;27693;50.506;30.832;2023-01-30T07:37:09;99299.02;;;-0.52;76.00
42003;BME280;27693;50.506;30.832;2023-01-30T07:38:11;99288.45;;;-0.11;81.68
42003;BME280;27693;50.506;30.832;2023-01-30T07:39:13;99291.01;;;-0.11;80.32
42003;BME280;27693;50.506;30.832;2023-01-30T07:40:17;99287.56;;;-0.06;80.30
42003;BME280;27693;50.506;30.832;2023-01-30T07:41:20;99289.59;;;-0.46;76.92
42003;BME280;27693;50.506;30.832;2023-01-30T07:42:24;99297.35;;;-0.56;78.62
42003;BME280;27693;50.506;30.832;2023-01-30T07:43:27;99287.23;;;-0.74;77.92
42003;BME280;27693;50.506;30.832;2023-01-30T07:44:29;99285.52;;;-0.69;79.35
42003;BME280;27693;50.506;30.832;2023-01-30T07:45:40;99274.23;;;-0.42;81.77
42003;BME280;27693;50.506;30.832;2023-01-30T07:46:43;99276.81;;;-0.46;80.06
42003;BME280;27693;50.506;30.832;2023-01-30T07:47:45;99255.92;;;-0.36;81.09
42003;BME280;27693;50.506;30.832;2023-01-30T07:48:48;99255.92;;;0.03;85.03
42003;BME280;27693;50.506;30.832;2023-01-30T07:49:52;99279.48;;;0.33;85.71
42003;BME280;27693;50.506;30.832;2023-01-30T07:50:55;99279.59;;;0.21;81.68
42003;BME280;27693;50.506;30.832;2023-01-30T07:51:58;99273.05;;;-0.05;80.17
42003;BME280;27693;50.506;30.832;2023-01-30T07:53:04;99273.34;;;-0.36;78.31
42003;BME280;27693;50.506;30.832;2023-01-30T07:54:08;99271.19;;;-0.92;77.57
42003;BME280;27693;50.506;30.832;2023-01-30T07:55:11;99274.64;;;-1.02;77.53
42003;BME280;27693;50.506;30.832;2023-01-30T07:56:13;99272.91;;;-0.95;78.25
42003;BME280;27693;50.506;30.832;2023-01-30T07:57:17;99265.14;;;-0.78;80.20
42003;BME280;27693;50.506;30.832;2023-01-30T07:58:19;99257.38;;;-0.63;81.59
42003;BME280;27693;50.506;30.832;2023-01-30T07:59:22;99262.80;;;-0.02;85.47
42003;BME280;27693;50.506;30.832;2023-01-30T08:00:26;99261.34;;;-0.28;81.56
42003;BME280;27693;50.506;30.832;2023-01-30T08:01:31;99254.72;;;-0.54;79.59
42003;BME280;27693;50.506;30.832;2023-01-30T08:02:34;99255.70;;;-0.69;77.87
42003;BME280;27693;50.506;30.832;2023-01-30T08:03:36;99256.36;;;-0.43;81.79
42003;BME280;27693;50.506;30.832;2023-01-30T08:04:38;99244.44;;;-0.44;79.95
42003;BME280;27693;50.506;30.832;2023-01-30T08:05:40;99250.48;;;0.33;86.78
42003;BME280;27693;50.506;30.832;2023-01-30T08:06:43;99253.02;;;0.36;85.59
42003;BME280;27693;50.506;30.832;2023-01-30T08:07:48;99246.27;;;0.28;82.87
42003;BME280;27693;50.506;30.832;2023-01-30T08:08:50;99237.09;;;0.10;81.74
42003;BME280;27693;50.506;30.832;2023-01-30T08:09:52;99242.19;;;0.13;82.24
42003;BME280;27693;50.506;30.832;2023-01-30T08:10:55;99238.50;;;0.36;85.61
42003;BME280;27693;50.506;30.832;2023-01-30T08:11:57;99242.27;;;0.04;81.50
42003;BME280;27693;50.506;30.832;2023-01-30T08:12:59;99230.39;;;0.00;80.96
42003;BME280;27693;50.506;30.832;2023-01-30T08:14:01;99249.23;;;-0.10;80.71
42003;BME280;27693;50.506;30.832;2023-01-30T08:15:06;99242.23;;;0.09;83.06
42003;BME280;27693;50.506;30.832;2023-01-30T08:16:10;99238.73;;;0.14;84.03
42003;BME280;27693;50.506;30.832;2023-01-30T08:17:12;99231.83;;;0.23;84.00
42003;BME280;27693;50.506;30.832;2023-01-30T08:18:16;99223.20;;;0.33;84.83
42003;BME280;27693;50.506;30.832;2023-01-30T08:19:18;99235.17;;;0.28;81.80
42003;BME280;27693;50.506;30.832;2023-01-30T08:20:21;99224.94;;;0.28;82.52
42003;BME280;27693;50.506;30.832;2023-01-30T08:21:23;99235.17;;;0.28;82.33
42003;BME280;27693;50.506;30.832;2023-01-30T08:22:25;99230.05;;;0.28;81.82
42003;BME280;27693;50.506;30.832;2023-01-30T08:23:27;99227.38;;;0.40;82.61
42003;BME280;27693;50.506;30.832;2023-01-30T08:24:29;99216.33;;;0.35;83.44
42003;BME280;27693;50.506;30.832;2023-01-30T08:25:32;99220.81;;;0.18;80.19
42003;BME280;27693;50.506;30.832;2023-01-30T08:26:36;99214.83;;;0.19;81.04
42003;BME280;27693;50.506;30.832;2023-01-30T08:27:38;99223.30;;;0.24;81.64
42003;BME280;27693;50.506;30.832;2023-01-30T08:28:40;99215.98;;;-0.07;77.71
42003;BME280;27693;50.506;30.832;2023-01-30T08:29:43;99209.11;;;-0.05;81.08
42003;BME280;27693;50.506;30.832;2023-01-30T08:30:46;99215.33;;;-0.28;78.45
42003;BME280;27693;50.506;30.832;2023-01-30T08:31:50;99201.78;;;0.39;84.88
42003;BME280;27693;50.506;30.832;2023-01-30T08:32:52;99218.98;;;0.27;83.21
42003;BME280;27693;50.506;30.832;2023-01-30T08:33:54;99207.48;;;-0.12;79.43
42003;BME280;27693;50.506;30.832;2023-01-30T08:34:56;99209.57;;;-0.52;77.77
42003;BME280;27693;50.506;30.832;2023-01-30T08:35:58;99202.69;;;-0.43;80.68
42003;BME280;27693;50.506;30.832;2023-01-30T08:37:01;99196.39;;;-0.11;82.99